createdAt,value
2023-09-21T00:00:09.746Z,980.9
2023-09-21T00:01:11.454Z,980.87
2023-09-21T00:02:13.158Z,980.87
2023-09-21T00:03:14.926Z,980.86
2023-09-21T00:04:16.661Z,980.84
2023-09-21T00:05:18.374Z,980.82
2023-09-21T00:06:20.105Z,980.86
2023-09-21T00:07:21.844Z,980.84
2023-09-21T00:08:23.566Z,980.87
2023-09-21T00:09:25.304Z,980.86
2023-09-21T00:10:27.016Z,980.79
2023-09-21T00:11:28.809Z,980.8
2023-09-21T00:12:30.525Z,980.76
2023-09-21T00:13:32.237Z,980.8
2023-09-21T00:14:33.971Z,980.8
2023-09-21T00:15:35.718Z,980.81
2023-09-21T00:16:37.455Z,980.73
2023-09-21T00:17:40.563Z,980.73
2023-09-21T00:18:41.112Z,980.78
2023-09-21T00:19:42.628Z,980.76
2023-09-21T00:20:44.410Z,980.75
2023-09-21T00:21:46.111Z,980.71
2023-09-21T00:22:47.836Z,980.7
2023-09-21T00:23:49.912Z,980.66
2023-09-21T00:24:51.306Z,980.69
2023-09-21T00:25:53.028Z,980.71
2023-09-21T00:26:54.784Z,980.67
2023-09-21T00:27:56.509Z,980.65
2023-09-21T00:28:58.272Z,980.65
2023-09-21T00:30:00.122Z,980.68
2023-09-21T00:31:01.720Z,980.62
2023-09-21T00:32:03.433Z,980.69
2023-09-21T00:33:05.205Z,980.63
2023-09-21T00:34:07.095Z,980.59
2023-09-21T00:35:08.640Z,980.62
2023-09-21T00:36:10.725Z,980.65
2023-09-21T00:37:12.093Z,980.64
2023-09-21T00:38:13.839Z,980.6
2023-09-21T00:39:15.610Z,980.6
2023-09-21T00:40:18.318Z,980.62
2023-09-21T00:41:19.385Z,980.57
2023-09-21T00:42:20.752Z,980.58
2023-09-21T00:43:22.527Z,980.62
2023-09-21T00:44:24.229Z,980.58
2023-09-21T00:45:25.964Z,980.62
2023-09-21T00:46:27.749Z,980.61
2023-09-21T00:47:29.429Z,980.64
2023-09-21T00:48:31.258Z,980.62
2023-09-21T00:49:32.952Z,980.63
2023-09-21T00:50:34.723Z,980.65
2023-09-21T00:51:36.387Z,980.68
2023-09-21T00:52:38.075Z,980.7
2023-09-21T00:53:39.870Z,980.66
2023-09-21T00:54:41.531Z,980.64
2023-09-21T00:55:43.312Z,980.64
2023-09-21T00:56:45.072Z,980.59
2023-09-21T00:57:46.774Z,980.58
2023-09-21T00:58:48.498Z,980.48
2023-09-21T00:59:50.313Z,980.51
2023-09-21T01:00:52.046Z,980.52
2023-09-21T01:01:53.777Z,980.54
2023-09-21T01:02:55.628Z,980.53
2023-09-21T01:03:57.456Z,980.54
2023-09-21T01:04:58.896Z,980.55
2023-09-21T01:06:00.676Z,980.49
2023-09-21T01:07:02.354Z,980.51
2023-09-21T01:08:04.110Z,980.5
2023-09-21T01:09:05.883Z,980.48
2023-09-21T01:10:07.574Z,980.48
2023-09-21T01:11:09.316Z,980.45
2023-09-21T01:12:11.069Z,980.44
2023-09-21T01:13:12.786Z,980.48
2023-09-21T01:15:19.650Z,980.46
2023-09-21T01:25:41.422Z,980.37
2023-09-21T01:26:43.303Z,980.37
2023-09-21T01:27:44.885Z,980.36
2023-09-21T01:28:46.622Z,980.4
2023-09-21T01:29:48.545Z,980.38
2023-09-21T01:30:50.099Z,980.37
2023-09-21T01:31:51.897Z,980.35
2023-09-21T01:32:53.693Z,980.41
2023-09-21T01:33:55.387Z,980.4
2023-09-21T01:34:56.988Z,980.37
2023-09-21T01:35:58.729Z,980.42
2023-09-21T01:37:00.413Z,980.4
2023-09-21T01:38:02.130Z,980.37
2023-09-21T01:39:03.939Z,980.39
2023-09-21T01:40:05.583Z,980.38
2023-09-21T01:41:07.409Z,980.36
2023-09-21T01:42:09.102Z,980.36
2023-09-21T01:43:10.770Z,980.31
2023-09-21T01:44:12.534Z,980.3
2023-09-21T01:45:14.411Z,980.29
2023-09-21T01:46:16.015Z,980.24
2023-09-21T01:47:17.673Z,980.25
2023-09-21T01:48:19.526Z,980.29
2023-09-21T01:49:21.123Z,980.3
2023-09-21T01:50:22.842Z,980.27
2023-09-21T01:51:24.610Z,980.27
2023-09-21T01:52:26.289Z,980.17
2023-09-21T01:53:28.048Z,980.2
2023-09-21T01:54:29.762Z,980.16
2023-09-21T01:55:31.461Z,980.17
2023-09-21T01:56:33.205Z,980.19
2023-09-21T01:57:34.925Z,980.16
2023-09-21T01:58:36.659Z,980.13
2023-09-21T01:59:38.531Z,980.12
2023-09-21T02:00:40.146Z,980.08
2023-09-21T02:01:41.866Z,980.06
2023-09-21T02:02:43.909Z,980.02
2023-09-21T02:03:45.496Z,980.06
2023-09-21T02:04:47.000Z,980
2023-09-21T02:06:50.471Z,979.92
2023-09-21T02:07:52.162Z,979.99
2023-09-21T02:08:53.950Z,979.99
2023-09-21T02:09:55.641Z,979.94
2023-09-21T02:10:57.368Z,980
2023-09-21T02:11:59.143Z,980
2023-09-21T02:13:00.856Z,979.99
2023-09-21T02:14:02.545Z,980.03
2023-09-21T02:15:04.332Z,980.05
2023-09-21T02:16:06.023Z,979.99
2023-09-21T02:17:07.717Z,980.02
2023-09-21T02:18:09.552Z,980
2023-09-21T02:19:11.183Z,979.98
2023-09-21T02:20:12.914Z,980.01
2023-09-21T02:21:14.688Z,979.99
2023-09-21T02:22:16.355Z,979.95
2023-09-21T02:23:18.313Z,979.99
2023-09-21T02:24:19.855Z,979.95
2023-09-21T02:25:21.529Z,979.93
2023-09-21T02:26:23.261Z,979.89
2023-09-21T02:27:24.995Z,979.88
2023-09-21T02:28:26.723Z,979.87
2023-09-21T02:29:28.442Z,979.83
2023-09-21T02:30:30.160Z,979.83
2023-09-21T02:31:31.948Z,979.8
2023-09-21T02:32:33.618Z,979.81
2023-09-21T02:33:35.619Z,979.84
2023-09-21T02:34:37.064Z,979.83
2023-09-21T02:35:38.833Z,979.87
2023-09-21T02:36:40.517Z,979.91
2023-09-21T02:37:42.189Z,979.86
2023-09-21T02:38:44.175Z,979.9
2023-09-21T02:39:45.695Z,979.93
2023-09-21T02:40:47.724Z,979.94
2023-09-21T02:41:49.166Z,979.8
2023-09-21T02:42:50.876Z,979.86
2023-09-21T02:43:52.591Z,979.85
2023-09-21T02:44:54.351Z,979.74
2023-09-21T02:45:56.060Z,979.78
2023-09-21T02:46:57.765Z,979.8
2023-09-21T02:47:59.598Z,979.76
2023-09-21T02:49:01.221Z,979.78
2023-09-21T02:50:02.945Z,979.73
2023-09-21T02:51:04.687Z,979.66
2023-09-21T02:52:06.399Z,979.63
2023-09-21T02:53:08.177Z,979.63
2023-09-21T02:54:09.880Z,979.57
2023-09-21T02:55:11.575Z,979.59
2023-09-21T02:56:13.298Z,979.55
2023-09-21T02:57:15.152Z,979.52
2023-09-21T02:58:16.766Z,979.57
2023-09-21T02:59:18.518Z,979.48
2023-09-21T03:00:20.387Z,979.49
2023-09-21T03:01:21.974Z,979.51
2023-09-21T03:02:23.736Z,979.46
2023-09-21T03:03:25.680Z,979.51
2023-09-21T03:04:27.119Z,979.5
2023-09-21T03:05:28.847Z,979.53
2023-09-21T03:06:30.578Z,979.55
2023-09-21T03:07:32.279Z,979.54
2023-09-21T03:08:34.014Z,979.5
2023-09-21T03:09:35.753Z,979.47
2023-09-21T03:10:37.603Z,979.45
2023-09-21T03:11:39.251Z,979.45
2023-09-21T03:12:40.916Z,979.44
2023-09-21T03:13:42.642Z,979.37
2023-09-21T03:14:44.382Z,979.36
2023-09-21T03:15:46.168Z,979.41
2023-09-21T03:16:47.898Z,979.41
2023-09-21T03:17:49.643Z,979.36
2023-09-21T03:18:51.301Z,979.32
2023-09-21T03:19:53.002Z,979.34
2023-09-21T03:20:54.809Z,979.34
2023-09-21T03:21:56.441Z,979.36
2023-09-21T03:22:58.178Z,979.32
2023-09-21T03:23:59.990Z,979.33
2023-09-21T03:25:01.634Z,979.31
2023-09-21T03:26:03.367Z,979.28
2023-09-21T03:27:05.081Z,979.19
2023-09-21T03:28:06.836Z,979.27
2023-09-21T03:29:08.529Z,979.26
2023-09-21T03:30:10.272Z,979.27
2023-09-21T03:31:11.986Z,979.23
2023-09-21T03:32:13.719Z,979.24
2023-09-21T03:33:15.517Z,979.18
2023-09-21T03:34:17.162Z,979.17
2023-09-21T03:35:21.625Z,979.15
2023-09-21T03:36:20.712Z,979.14
2023-09-21T03:37:22.321Z,979.14
2023-09-21T03:38:24.119Z,979.12
2023-09-21T03:39:25.890Z,979.1
2023-09-21T03:40:27.560Z,979.1
2023-09-21T03:41:29.219Z,979.06
2023-09-21T03:42:30.962Z,979.03
2023-09-21T03:43:32.703Z,979.02
2023-09-21T03:44:34.422Z,979.01
2023-09-21T03:45:36.155Z,978.97
2023-09-21T03:46:37.941Z,978.93
2023-09-21T03:47:39.735Z,978.96
2023-09-21T03:48:41.938Z,978.98
2023-09-21T03:49:43.051Z,978.92
2023-09-21T03:50:44.902Z,978.93
2023-09-21T03:51:46.505Z,978.87
2023-09-21T03:52:48.265Z,978.89
2023-09-21T03:53:50.026Z,978.83
2023-09-21T03:54:51.659Z,978.83
2023-09-21T03:55:53.412Z,978.89
2023-09-21T03:56:55.190Z,978.85
2023-09-21T03:57:56.939Z,978.8
2023-09-21T03:59:01.163Z,978.74
2023-09-21T04:00:00.372Z,978.77
2023-09-21T04:01:02.039Z,978.77
2023-09-21T04:02:03.797Z,978.74
2023-09-21T04:03:05.717Z,978.74
2023-09-21T04:04:07.303Z,978.72
2023-09-21T04:05:09.087Z,978.66
2023-09-21T04:06:10.702Z,978.63
2023-09-21T04:07:12.380Z,978.68
2023-09-21T04:08:14.083Z,978.67
2023-09-21T04:09:15.882Z,978.66
2023-09-21T04:10:17.559Z,978.64
2023-09-21T04:11:19.330Z,978.64
2023-09-21T04:12:21.111Z,978.66
2023-09-21T04:13:22.730Z,978.66
2023-09-21T04:14:24.465Z,978.64
2023-09-21T04:15:26.232Z,978.6
2023-09-21T04:16:27.974Z,978.59
2023-09-21T04:17:30.022Z,978.6
2023-09-21T04:18:31.513Z,978.6
2023-09-21T04:19:33.092Z,978.65
2023-09-21T04:20:34.899Z,978.62
2023-09-21T04:21:36.722Z,978.64
2023-09-21T04:22:38.285Z,978.64
2023-09-21T04:23:39.999Z,978.65
2023-09-21T04:24:41.932Z,978.66
2023-09-21T04:25:43.474Z,978.66
2023-09-21T04:26:45.196Z,978.63
2023-09-21T04:27:46.910Z,978.65
2023-09-21T04:28:48.641Z,978.62
2023-09-21T04:29:50.416Z,978.66
2023-09-21T04:30:52.115Z,978.61
2023-09-21T04:31:53.832Z,978.62
2023-09-21T04:32:55.618Z,978.61
2023-09-21T04:33:57.338Z,978.66
2023-09-21T04:35:00.308Z,978.66
2023-09-21T04:36:00.760Z,978.66
2023-09-21T04:37:02.445Z,978.68
2023-09-21T04:38:04.143Z,978.7
2023-09-21T04:39:05.976Z,978.64
2023-09-21T04:40:07.618Z,978.63
2023-09-21T04:41:09.426Z,978.63
2023-09-21T04:42:11.148Z,978.61
2023-09-21T04:43:12.799Z,978.58
2023-09-21T04:44:14.524Z,978.6
2023-09-21T04:45:16.260Z,978.61
2023-09-21T04:46:18.044Z,978.61
2023-09-21T04:47:19.697Z,978.59
2023-09-21T04:48:21.506Z,978.57
2023-09-21T04:49:23.133Z,978.57
2023-09-21T04:50:24.894Z,978.57
2023-09-21T04:51:26.664Z,978.61
2023-09-21T04:52:28.362Z,978.68
2023-09-21T04:53:30.090Z,978.62
2023-09-21T04:54:31.780Z,978.61
2023-09-21T04:55:33.488Z,978.67
2023-09-21T04:56:35.283Z,978.67
2023-09-21T04:57:36.961Z,978.64
2023-09-21T04:58:38.686Z,978.66
2023-09-21T04:59:40.386Z,978.69
2023-09-21T05:00:42.151Z,978.67
2023-09-21T05:01:43.840Z,978.62
2023-09-21T05:02:46.261Z,978.65
2023-09-21T05:03:47.392Z,978.66
2023-09-21T05:04:49.077Z,978.64
2023-09-21T05:05:50.768Z,978.6
2023-09-21T05:06:52.508Z,978.62
2023-09-21T05:07:54.225Z,978.62
2023-09-21T05:08:56.006Z,978.66
2023-09-21T05:09:57.694Z,978.64
2023-09-21T05:10:59.408Z,978.65
2023-09-21T05:12:01.139Z,978.67
2023-09-21T05:13:02.838Z,978.7
2023-09-21T05:14:04.573Z,978.67
2023-09-21T05:15:06.366Z,978.67
2023-09-21T05:16:08.081Z,978.62
2023-09-21T05:17:09.808Z,978.65
2023-09-21T05:18:11.578Z,978.64
2023-09-21T05:19:13.235Z,978.64
2023-09-21T05:20:14.921Z,978.62
2023-09-21T05:21:17.958Z,978.62
2023-09-21T05:22:18.393Z,978.59
2023-09-21T05:23:20.126Z,978.65
2023-09-21T05:24:21.880Z,978.63
2023-09-21T05:25:23.559Z,978.68
2023-09-21T05:26:25.274Z,978.66
2023-09-21T05:27:27.061Z,978.68
2023-09-21T05:28:28.731Z,978.66
2023-09-21T05:29:30.456Z,978.72
2023-09-21T05:30:32.218Z,978.71
2023-09-21T05:31:33.909Z,978.65
2023-09-21T05:32:37.635Z,978.62
2023-09-21T05:33:36.552Z,978.6
2023-09-21T05:34:39.098Z,978.65
2023-09-21T05:36:16.153Z,978.69
2023-09-21T05:40:50.884Z,978.8
2023-09-21T05:41:51.475Z,978.75
2023-09-21T05:43:03.711Z,978.78
2023-09-21T05:47:31.468Z,978.8
2023-09-21T05:56:40.609Z,978.68
2023-09-21T05:57:42.347Z,978.66
2023-09-21T05:58:44.318Z,978.66
2023-09-21T05:59:46.015Z,978.74
2023-09-21T06:00:47.525Z,978.77
2023-09-21T06:01:49.284Z,978.72
2023-09-21T06:02:51.129Z,978.76
2023-09-21T06:03:52.865Z,978.72
2023-09-21T06:04:54.479Z,978.76
2023-09-21T06:05:56.198Z,978.73
2023-09-21T06:06:57.870Z,978.7
2023-09-21T06:07:59.591Z,978.77
2023-09-21T06:09:01.355Z,978.78
2023-09-21T06:10:03.143Z,978.76
2023-09-21T06:11:04.897Z,978.79
2023-09-21T06:12:06.558Z,978.79
2023-09-21T06:13:08.236Z,978.8
2023-09-21T06:14:09.963Z,978.75
2023-09-21T06:15:11.837Z,978.75
2023-09-21T06:16:13.520Z,978.73
2023-09-21T06:17:15.427Z,978.71
2023-09-21T06:18:16.920Z,978.69
2023-09-21T06:19:18.575Z,978.67
2023-09-21T06:20:20.355Z,978.67
2023-09-21T06:21:22.079Z,978.67
2023-09-21T06:22:23.763Z,978.58
2023-09-21T06:23:25.489Z,978.59
2023-09-21T06:24:27.244Z,978.58
2023-09-21T06:25:31.641Z,978.54
2023-09-21T06:26:30.671Z,978.54
2023-09-21T06:27:32.392Z,978.56
2023-09-21T06:28:34.108Z,978.48
2023-09-21T06:29:35.839Z,978.47
2023-09-21T06:30:37.555Z,978.45
2023-09-21T06:31:39.355Z,978.47
2023-09-21T06:32:41.056Z,978.47
2023-09-21T06:33:42.823Z,978.47
2023-09-21T06:34:45.135Z,978.5
2023-09-21T06:35:46.241Z,978.52
2023-09-21T06:36:47.924Z,978.5
2023-09-21T06:37:49.704Z,978.46
2023-09-21T06:38:51.465Z,978.44
2023-09-21T06:39:57.433Z,978.48
2023-09-21T06:41:00.001Z,978.52
2023-09-21T06:42:01.809Z,978.56
2023-09-21T06:43:03.555Z,978.55
2023-09-21T06:44:05.139Z,978.52
2023-09-21T06:45:06.872Z,978.57
2023-09-21T06:46:08.627Z,978.54
2023-09-21T06:47:10.300Z,978.53
2023-09-21T06:48:12.236Z,978.59
2023-09-21T06:49:13.822Z,978.6
2023-09-21T06:50:15.489Z,978.58
2023-09-21T06:51:17.340Z,978.59
2023-09-21T06:52:18.953Z,978.57
2023-09-21T06:53:20.862Z,978.49
2023-09-21T06:54:22.461Z,978.49
2023-09-21T06:55:24.102Z,978.55
2023-09-21T06:56:25.879Z,978.5
2023-09-21T06:57:27.574Z,978.5
2023-09-21T06:58:29.284Z,978.5
2023-09-21T06:59:31.013Z,978.46
2023-09-21T07:00:32.853Z,978.44
2023-09-21T07:01:34.490Z,978.38
2023-09-21T07:02:36.327Z,978.45
2023-09-21T07:03:38.134Z,978.48
2023-09-21T07:04:39.667Z,978.49
2023-09-21T07:05:41.421Z,978.54
2023-09-21T07:06:43.200Z,978.52
2023-09-21T07:07:44.824Z,978.52
2023-09-21T07:08:46.594Z,978.5
2023-09-21T07:09:48.274Z,978.47
2023-09-21T07:10:49.987Z,978.5
2023-09-21T07:11:51.764Z,978.52
2023-09-21T07:12:53.422Z,978.51
2023-09-21T07:13:55.154Z,978.51
2023-09-21T07:14:56.930Z,978.48
2023-09-21T07:15:58.676Z,978.53
2023-09-21T07:17:00.391Z,978.51
2023-09-21T07:18:02.293Z,978.5
2023-09-21T07:19:03.860Z,978.47
2023-09-21T07:20:05.522Z,978.45
2023-09-21T07:21:07.297Z,978.44
2023-09-21T07:22:09.022Z,978.46
2023-09-21T07:23:10.724Z,978.43
2023-09-21T07:24:12.442Z,978.41
2023-09-21T07:25:14.153Z,978.41
2023-09-21T07:26:16.053Z,978.38
2023-09-21T07:27:17.695Z,978.37
2023-09-21T07:28:19.330Z,978.33
2023-09-21T07:29:21.046Z,978.31
2023-09-21T07:30:22.834Z,978.31
2023-09-21T07:31:24.525Z,978.3
2023-09-21T07:32:26.262Z,978.27
2023-09-21T07:33:28.039Z,978.25
2023-09-21T07:34:29.672Z,978.24
2023-09-21T07:35:31.405Z,978.24
2023-09-21T07:36:33.183Z,978.22
2023-09-21T07:37:34.863Z,978.24
2023-09-21T07:38:36.598Z,978.26
2023-09-21T07:39:38.450Z,978.2
2023-09-21T07:40:40.041Z,978.23
2023-09-21T07:41:41.761Z,978.16
2023-09-21T07:42:43.636Z,978.23
2023-09-21T07:43:45.209Z,978.17
2023-09-21T07:44:46.974Z,978.21
2023-09-21T07:45:48.646Z,978.2
2023-09-21T07:46:50.441Z,978.21
2023-09-21T07:47:52.136Z,978.18
2023-09-21T07:48:53.879Z,978.18
2023-09-21T07:49:55.574Z,978.18
2023-09-21T07:50:57.431Z,978.15
2023-09-21T07:51:59.016Z,978.17
2023-09-21T07:53:00.787Z,978.19
2023-09-21T07:54:02.512Z,978.13
2023-09-21T07:55:04.210Z,978.15
2023-09-21T07:56:05.903Z,978.11
2023-09-21T07:57:07.709Z,978.19
2023-09-21T07:58:09.358Z,978.15
2023-09-21T07:59:26.730Z,978.14
2023-09-21T08:00:28.358Z,978.16
2023-09-21T08:01:30.011Z,978.14
2023-09-21T08:02:31.917Z,978.13
2023-09-21T08:03:33.675Z,978.09
2023-09-21T08:04:35.435Z,978.07
2023-09-21T08:05:37.095Z,978.08
2023-09-21T08:06:38.639Z,978.04
2023-09-21T08:07:40.352Z,978.05
2023-09-21T08:08:42.358Z,978.04
2023-09-21T08:09:43.870Z,978.01
2023-09-21T08:10:45.623Z,978.03
2023-09-21T08:11:47.249Z,978.07
2023-09-21T08:12:48.991Z,978.01
2023-09-21T08:13:50.600Z,978.05
2023-09-21T08:14:52.468Z,978.06
2023-09-21T08:15:54.130Z,978.06
2023-09-21T08:16:55.945Z,978.14
2023-09-21T08:17:57.692Z,978.1
2023-09-21T08:18:59.354Z,978.17
2023-09-21T08:20:01.001Z,978.15
2023-09-21T08:21:02.756Z,978.15
2023-09-21T08:22:04.462Z,978.19
2023-09-21T08:23:06.194Z,978.17
2023-09-21T08:25:09.688Z,978.13
2023-09-21T08:26:11.415Z,978.14
2023-09-21T08:27:13.174Z,978.09
2023-09-21T08:28:14.859Z,978.07
2023-09-21T08:29:16.596Z,978.05
2023-09-21T08:30:18.398Z,978.02
2023-09-21T08:31:20.173Z,978.03
2023-09-21T08:32:21.811Z,977.98
2023-09-21T08:33:23.663Z,977.99
2023-09-21T08:34:25.272Z,977.97
2023-09-21T08:35:27.001Z,978
2023-09-21T08:36:28.784Z,977.96
2023-09-21T08:38:11.996Z,977.98
2023-09-21T08:50:43.902Z,977.9
2023-09-21T08:51:45.660Z,977.76
2023-09-21T08:52:47.351Z,977.77
2023-09-21T08:53:49.113Z,977.84
2023-09-21T08:54:50.834Z,977.78
2023-09-21T08:55:52.578Z,977.78
2023-09-21T08:56:54.336Z,977.79
2023-09-21T08:57:56.024Z,977.78
2023-09-21T08:58:58.535Z,977.76
2023-09-21T08:59:59.549Z,977.76
2023-09-21T09:01:01.229Z,977.74
2023-09-21T09:02:03.030Z,977.8
2023-09-21T09:03:04.987Z,977.8
2023-09-21T09:04:06.531Z,977.81
2023-09-21T09:05:08.200Z,977.82
2023-09-21T09:06:09.955Z,977.81
2023-09-21T09:07:11.610Z,977.77
2023-09-21T09:08:13.382Z,977.8
2023-09-21T09:09:15.235Z,977.76
2023-09-21T09:10:16.895Z,977.8
2023-09-21T09:11:18.599Z,977.71
2023-09-21T09:12:20.340Z,977.62
2023-09-21T09:13:22.028Z,977.63
2023-09-21T09:14:23.779Z,977.7
2023-09-21T09:15:25.549Z,977.71
2023-09-21T09:16:27.267Z,977.68
2023-09-21T09:17:28.986Z,977.67
2023-09-21T09:18:30.809Z,977.64
2023-09-21T09:19:32.528Z,977.65
2023-09-21T09:20:34.178Z,977.67
2023-09-21T09:21:35.946Z,977.64
2023-09-21T09:22:37.688Z,977.65
2023-09-21T09:23:39.366Z,977.6
2023-09-21T09:24:41.153Z,977.57
2023-09-21T09:25:42.830Z,977.57
2023-09-21T09:26:44.629Z,977.55
2023-09-21T09:27:46.324Z,977.58
2023-09-21T09:28:48.168Z,977.56
2023-09-21T09:29:49.872Z,977.57
2023-09-21T09:31:34.077Z,977.53
2023-09-21T09:33:01.392Z,977.5
2023-09-21T09:34:03.067Z,977.46
2023-09-21T09:35:04.898Z,977.45
2023-09-21T09:36:06.610Z,977.42
2023-09-21T09:37:08.256Z,977.42
2023-09-21T09:38:09.981Z,977.4
2023-09-21T09:39:11.698Z,977.35
2023-09-21T09:40:13.500Z,977.33
2023-09-21T09:41:15.156Z,977.31
2023-09-21T09:42:17.140Z,977.3
2023-09-21T09:43:18.669Z,977.24
2023-09-21T09:44:20.407Z,977.25
2023-09-21T09:45:22.221Z,977.26
2023-09-21T09:46:23.936Z,977.17
2023-09-21T09:47:25.618Z,977.2
2023-09-21T09:48:27.436Z,977.2
2023-09-21T09:49:29.029Z,977.23
2023-09-21T09:50:30.779Z,977.24
2023-09-21T09:51:32.567Z,977.17
2023-09-21T09:52:34.252Z,977.16
2023-09-21T09:53:36.001Z,977.09
2023-09-21T09:54:37.709Z,977.11
2023-09-21T09:55:39.456Z,977.08
2023-09-21T09:56:41.258Z,977.07
2023-09-21T09:57:42.894Z,977.07
2023-09-21T09:58:45.012Z,977
2023-09-21T09:59:46.385Z,977
2023-09-21T10:00:48.102Z,976.95
2023-09-21T10:01:49.873Z,977.01
2023-09-21T10:02:51.741Z,977
2023-09-21T10:03:53.423Z,977
2023-09-21T10:04:55.090Z,977
2023-09-21T10:05:56.801Z,977
2023-09-21T10:06:58.608Z,977.03
2023-09-21T10:08:00.279Z,977
2023-09-21T10:09:02.048Z,976.98
2023-09-21T10:10:03.701Z,976.96
2023-09-21T10:11:05.526Z,976.98
2023-09-21T10:12:07.250Z,977
2023-09-21T10:13:08.917Z,976.96
2023-09-21T10:14:10.654Z,976.91
2023-09-21T10:15:12.532Z,976.91
2023-09-21T10:16:14.168Z,976.86
2023-09-21T10:17:16.174Z,976.89
2023-09-21T10:18:17.778Z,976.91
2023-09-21T10:19:19.645Z,976.91
2023-09-21T10:20:21.041Z,976.87
2023-09-21T10:21:22.828Z,976.9
2023-09-21T10:22:24.554Z,976.91
2023-09-21T10:23:26.261Z,976.85
2023-09-21T10:24:29.431Z,976.89
2023-09-21T10:25:29.718Z,976.87
2023-09-21T10:26:30.448Z,976.85
2023-09-21T10:27:33.292Z,976.83
2023-09-21T10:28:34.932Z,976.82
2023-09-21T10:29:36.653Z,976.78
2023-09-21T10:30:59.728Z,976.72
2023-09-21T10:32:20.456Z,976.77
2023-09-21T10:34:20.768Z,976.72
2023-09-21T10:35:22.478Z,976.72
2023-09-21T10:36:24.341Z,976.68
2023-09-21T10:37:25.960Z,976.67
2023-09-21T10:38:27.696Z,976.66
2023-09-21T10:39:29.834Z,976.69
2023-09-21T10:40:31.151Z,976.67
2023-09-21T10:41:32.897Z,976.63
2023-09-21T10:42:34.966Z,976.65
2023-09-21T10:43:36.362Z,976.63
2023-09-21T10:44:38.101Z,976.64
2023-09-21T10:45:40.464Z,976.6
2023-09-21T10:46:41.941Z,976.61
2023-09-21T10:47:43.673Z,976.63
2023-09-21T10:48:45.260Z,976.59
2023-09-21T10:49:46.757Z,976.58
2023-09-21T10:50:48.490Z,976.55
2023-09-21T10:51:50.222Z,976.56
2023-09-21T10:52:51.988Z,976.55
2023-09-21T10:53:53.694Z,976.57
2023-09-21T10:54:55.427Z,976.54
2023-09-21T10:55:57.177Z,976.54
2023-09-21T10:56:58.953Z,976.53
2023-09-21T10:58:00.639Z,976.53
2023-09-21T10:59:02.350Z,976.48
2023-09-21T11:01:06.049Z,976.4
2023-09-21T11:02:07.607Z,976.35
2023-09-21T11:03:09.436Z,976.3
2023-09-21T11:04:11.038Z,976.28
2023-09-21T11:05:12.821Z,976.28
2023-09-21T11:06:14.556Z,976.22
2023-09-21T11:07:16.296Z,976.2
2023-09-21T11:08:17.988Z,976.19
2023-09-21T11:09:19.832Z,976.16
2023-09-21T11:10:21.543Z,976.16
2023-09-21T11:11:23.201Z,976.12
2023-09-21T11:12:24.968Z,976.06
2023-09-21T11:13:26.664Z,976.08
2023-09-21T11:14:28.405Z,976.09
2023-09-21T11:15:30.236Z,976.08
2023-09-21T11:16:31.928Z,976.03
2023-09-21T11:17:33.657Z,976.07
2023-09-21T11:18:35.488Z,976.03
2023-09-21T11:19:37.073Z,976.03
2023-09-21T11:20:38.853Z,976.06
2023-09-21T11:21:40.579Z,975.93
2023-09-21T11:22:42.281Z,975.94
2023-09-21T11:23:44.068Z,975.93
2023-09-21T11:24:45.729Z,975.89
2023-09-21T11:25:47.469Z,975.87
2023-09-21T11:26:49.213Z,975.84
2023-09-21T11:27:50.988Z,975.86
2023-09-21T11:28:52.672Z,975.84
2023-09-21T11:29:54.418Z,975.81
2023-09-21T11:30:56.164Z,975.81
2023-09-21T11:31:57.884Z,975.78
2023-09-21T11:32:59.762Z,975.78
2023-09-21T11:34:01.343Z,975.79
2023-09-21T11:35:03.073Z,975.72
2023-09-21T11:36:04.917Z,975.73
2023-09-21T11:37:06.554Z,975.67
2023-09-21T11:43:12.482Z,975.65
2023-09-21T11:44:14.225Z,975.69
2023-09-21T11:45:16.065Z,975.7
2023-09-21T11:46:18.043Z,975.72
2023-09-21T11:47:19.484Z,975.73
2023-09-21T11:48:21.249Z,975.67
2023-09-21T11:49:22.860Z,975.69
2023-09-21T11:50:24.639Z,975.67
2023-09-21T11:51:26.482Z,975.63
2023-09-21T11:52:28.185Z,975.6
2023-09-21T11:53:29.815Z,975.58
2023-09-21T11:54:31.665Z,975.6
2023-09-21T11:55:33.325Z,975.6
2023-09-21T11:56:35.013Z,975.58
2023-09-21T11:57:36.773Z,975.56
2023-09-21T11:58:38.476Z,975.55
2023-09-21T11:59:40.231Z,975.51
2023-09-21T12:00:42.039Z,975.54
2023-09-21T12:01:43.761Z,975.57
2023-09-21T12:02:45.467Z,975.54
2023-09-21T12:03:47.302Z,975.52
2023-09-21T12:04:48.961Z,975.51
2023-09-21T12:05:50.622Z,975.51
2023-09-21T12:06:52.352Z,975.48
2023-09-21T12:07:54.158Z,975.53
2023-09-21T12:08:55.854Z,975.56
2023-09-21T12:09:57.527Z,975.53
2023-09-21T12:10:59.293Z,975.52
2023-09-21T12:12:01.018Z,975.47
2023-09-21T12:13:02.752Z,975.45
2023-09-21T12:14:04.477Z,975.47
2023-09-21T12:15:06.261Z,975.4
2023-09-21T12:16:09.323Z,975.41
2023-09-21T12:17:09.735Z,975.39
2023-09-21T12:18:14.718Z,975.31
2023-09-21T12:19:23.685Z,975.33
2023-09-21T12:20:25.218Z,975.27
2023-09-21T12:21:36.125Z,975.25
2023-09-21T12:22:40.097Z,975.21
2023-09-21T12:23:43.051Z,975.2
2023-09-21T12:24:51.865Z,975.16
2023-09-21T12:25:56.434Z,975.15
2023-09-21T12:26:58.192Z,975.13
2023-09-21T12:27:59.884Z,975.09
2023-09-21T12:29:01.607Z,975.1
2023-09-21T12:30:03.378Z,975.06
2023-09-21T12:31:05.111Z,975.03
2023-09-21T12:32:06.827Z,975.02
2023-09-21T12:33:08.618Z,974.98
2023-09-21T12:34:10.456Z,975
2023-09-21T12:35:11.983Z,974.97
2023-09-21T12:36:20.821Z,974.9
2023-09-21T12:37:17.528Z,974.96
2023-09-21T12:38:17.194Z,974.92
2023-09-21T12:39:19.048Z,974.91
2023-09-21T12:40:20.672Z,974.91
2023-09-21T12:41:22.381Z,974.83
2023-09-21T12:42:24.154Z,974.9
2023-09-21T12:43:25.856Z,974.85
2023-09-21T12:44:27.589Z,974.8
2023-09-21T12:45:29.397Z,974.83
2023-09-21T12:46:31.229Z,974.75
2023-09-21T12:47:32.804Z,974.75
2023-09-21T12:48:34.573Z,974.74
2023-09-21T12:49:36.364Z,974.76
2023-09-21T12:50:37.994Z,974.75
2023-09-21T12:51:39.766Z,974.74
2023-09-21T12:52:41.444Z,974.67
2023-09-21T12:53:43.459Z,974.71
2023-09-21T12:54:44.925Z,974.66
2023-09-21T12:55:46.693Z,974.69
2023-09-21T12:56:48.396Z,974.68
2023-09-21T12:57:50.126Z,974.7
2023-09-21T12:58:51.880Z,974.7
2023-09-21T12:59:53.577Z,974.72
2023-09-21T13:00:55.362Z,974.73
2023-09-21T13:01:57.130Z,974.73
2023-09-21T13:02:58.980Z,974.72
2023-09-21T13:04:00.599Z,974.71
2023-09-21T13:05:02.342Z,974.76
2023-09-21T13:06:04.144Z,974.75
2023-09-21T13:07:07.185Z,974.72
2023-09-21T13:08:07.559Z,974.7
2023-09-21T13:09:09.256Z,974.71
2023-09-21T13:10:11.166Z,974.7
2023-09-21T13:11:12.651Z,974.73
2023-09-21T13:12:14.425Z,974.75
2023-09-21T13:13:16.132Z,974.78
2023-09-21T13:14:17.851Z,974.76
2023-09-21T13:15:19.602Z,974.77
2023-09-21T13:16:21.383Z,974.69
2023-09-21T13:17:23.042Z,974.71
2023-09-21T13:18:24.900Z,974.67
2023-09-21T13:19:26.530Z,974.61
2023-09-21T13:20:28.234Z,974.64
2023-09-21T13:21:30.062Z,974.63
2023-09-21T13:22:31.702Z,974.63
2023-09-21T13:23:33.446Z,974.65
2023-09-21T13:24:35.265Z,974.6
2023-09-21T13:25:36.940Z,974.59
2023-09-21T13:26:38.644Z,974.57
2023-09-21T13:27:40.417Z,974.53
2023-09-21T13:28:42.408Z,974.52
2023-09-21T13:29:43.841Z,974.49
2023-09-21T13:30:45.749Z,974.5
2023-09-21T13:31:47.314Z,974.5
2023-09-21T13:32:49.098Z,974.46
2023-09-21T13:33:50.834Z,974.43
2023-09-21T13:34:52.529Z,974.38
2023-09-21T13:35:54.255Z,974.35
2023-09-21T13:36:55.997Z,974.27
2023-09-21T13:37:57.716Z,974.28
2023-09-21T13:38:59.541Z,974.3
2023-09-21T13:40:01.181Z,974.25
2023-09-21T13:41:02.936Z,974.23
2023-09-21T13:42:04.834Z,974.23
2023-09-21T13:43:06.433Z,974.21
2023-09-21T13:44:08.105Z,974.21